Shearwater — 3ESK5 — position and weather

sailwx.info

Track history (hours):
 
Tides and Currents Weather Stations Pressure Air Temp Water Temp Dewpoint Dewpoint Depression Visibility Wind Speed Wind Dir Waves Ship Positions

Shearwater

Last reported at 2018-Apr-03 06:48 UTC. Time now 2018-Apr-25 05:08 UTC.
Position N 42°05' E 141°25'.
Warning: this ship's position is 21 days out of date.

Length 210 m; draft 10.9 m.

Type: Cargo ship. MMSI: 370338000.

Date/timePositionNaut miles runAvg speedWind from/ knotsBaromVisibWave heightAir tempDewpointWater temp
2018-Apr-03 06:48N 42°05' E 141°25'512.5
2018-Apr-03 06:24N 41°60' E 141°23'712.6
2018-Apr-03 05:49N 41°53' E 141°20'412.8
2018-Apr-03 05:30N 41°49' E 141°18'612.7
2018-Apr-03 05:00N 41°43' E 141°15'612.2
2018-Apr-03 04:30N 41°40' E 141°08'815.2
2018-Apr-03 04:00N 41°38' E 140°58'816.1
2018-Apr-03 03:30N 41°34' E 140°49'715.0
2018-Apr-03 03:00N 41°30' E 140°40'714.7
2018-Apr-03 02:30N 41°26' E 140°32'814.5
2018-Apr-03 01:59N 41°21' E 140°24'715.0
2018-Apr-03 01:30N 41°17' E 140°16'61612.1
2018-Mar-31 22:47N 34°36' E 130°23'411.7
2018-Mar-31 22:29N 34°34' E 130°20'711.5
2018-Mar-31 21:54N 34°30' E 130°13'411.2
2018-Mar-31 21:30N 34°27' E 130°09'511.1
2018-Mar-31 21:00N 34°23' E 130°05'611.1
2018-Mar-31 20:30N 34°19' E 129°60'611.1
2018-Mar-31 19:59N 34°16' E 129°54'711.3
2018-Mar-31 19:24N 34°11' E 129°48'511.4
2018-Mar-31 19:00N 34°08' E 129°44'711.7
2018-Mar-31 18:26N 34°04' E 129°38'512.0
2018-Mar-31 17:59N 34°01' E 129°33'612.0
2018-Mar-31 17:30N 33°57' E 129°28'712.1
2018-Mar-31 16:53N 33°52' E 129°20'1112.1
2018-Mar-31 16:00N 33°45' E 129°11'911.9
2018-Mar-31 15:17N 33°40' E 129°03'312.1
2018-Mar-31 15:00N 33°38' E 128°60'712.2
2018-Mar-31 14:28N 33°33' E 128°54'612.0
2018-Mar-31 13:59N 33°30' E 128°48'57311.3
2018-Mar-29 11:09N 25°03' E 123°41'212.4
2018-Mar-29 11:00N 25°02' E 123°40'612.3
2018-Mar-29 10:30N 24°57' E 123°37'612.2
2018-Mar-29 10:00N 24°51' E 123°34'612.2
2018-Mar-29 09:30N 24°46' E 123°30'612.2
2018-Mar-29 09:00N 24°40' E 123°28'612.1
2018-Mar-29 08:30N 24°35' E 123°25'611.6
2018-Mar-29 08:00N 24°30' E 123°23'611.3
2018-Mar-29 07:30N 24°25' E 123°19'611.4
2018-Mar-29 07:00N 24°20' E 123°15'611.9
2018-Mar-29 06:30N 24°16' E 123°11'611.7
2018-Mar-29 06:00N 24°11' E 123°07'612.1
2018-Mar-29 05:30N 24°06' E 123°03'612.6
2018-Mar-29 05:00N 24°01' E 122°59'712.9
2018-Mar-29 04:30N 23°56' E 122°55'612.3
2018-Mar-29 04:00N 23°51' E 122°50'611.5
2018-Mar-29 03:30N 23°47' E 122°47'611.3
2018-Mar-29 03:00N 23°42' E 122°43'611.1
2018-Mar-29 02:30N 23°38' E 122°39'4210.8
2018-Mar-28 22:37N 23°05' E 122°10'411.2
2018-Mar-28 22:18N 23°02' E 122°08'511.5
2018-Mar-28 21:52N 22°59' E 122°05'411.9
2018-Mar-28 21:30N 22°55' E 122°02'611.8
2018-Mar-28 20:59N 22°50' E 121°58'611.9
2018-Mar-28 20:30N 22°46' E 121°54'611.7
2018-Mar-28 19:58N 22°40' E 121°50'511.4
2018-Mar-28 19:30N 22°36' E 121°47'510.6
2018-Mar-28 18:59N 22°32' E 121°43'510.7
2018-Mar-28 18:30N 22°28' E 121°39'511.0
2018-Mar-28 18:00N 22°24' E 121°36'1011.6
2018-Mar-28 17:07N 22°15' E 121°29'112.3
2018-Mar-28 17:01N 22°14' E 121°28'612.3
2018-Mar-28 16:30N 22°10' E 121°24'612.8
2018-Mar-28 16:00N 22°05' E 121°20'612.8
2018-Mar-28 15:30N 21°60' E 121°15'  
Track history (hours):
 
Tides and Currents Weather Stations Pressure Air Temp Water Temp Dewpoint Dewpoint Depression Visibility Wind Speed Wind Dir Waves Ship Positions

Shearwater

Last reported at 2018-Apr-03 06:48 UTC. Time now 2018-Apr-25 05:08 UTC.
Position N 42°05' E 141°25'.
Warning: this ship's position is 21 days out of date.

Length 210 m; draft 10.9 m.

Type: Cargo ship. MMSI: 370338000.

Date/timePositionNaut miles runAvg speedWind from/ knotsBaromVisibWave heightAir tempDewpointWater temp
2018-Apr-03 06:48N 42°05' E 141°25'512.5
2018-Apr-03 06:24N 41°60' E 141°23'712.6
2018-Apr-03 05:49N 41°53' E 141°20'412.8
2018-Apr-03 05:30N 41°49' E 141°18'612.7
2018-Apr-03 05:00N 41°43' E 141°15'612.2
2018-Apr-03 04:30N 41°40' E 141°08'815.2
2018-Apr-03 04:00N 41°38' E 140°58'816.1
2018-Apr-03 03:30N 41°34' E 140°49'715.0
2018-Apr-03 03:00N 41°30' E 140°40'714.7
2018-Apr-03 02:30N 41°26' E 140°32'814.5
2018-Apr-03 01:59N 41°21' E 140°24'715.0
2018-Apr-03 01:30N 41°17' E 140°16'61612.1
2018-Mar-31 22:47N 34°36' E 130°23'411.7
2018-Mar-31 22:29N 34°34' E 130°20'711.5
2018-Mar-31 21:54N 34°30' E 130°13'411.2
2018-Mar-31 21:30N 34°27' E 130°09'511.1
2018-Mar-31 21:00N 34°23' E 130°05'611.1
2018-Mar-31 20:30N 34°19' E 129°60'611.1
2018-Mar-31 19:59N 34°16' E 129°54'711.3
2018-Mar-31 19:24N 34°11' E 129°48'511.4
2018-Mar-31 19:00N 34°08' E 129°44'711.7
2018-Mar-31 18:26N 34°04' E 129°38'512.0
2018-Mar-31 17:59N 34°01' E 129°33'612.0
2018-Mar-31 17:30N 33°57' E 129°28'712.1
2018-Mar-31 16:53N 33°52' E 129°20'1112.1
2018-Mar-31 16:00N 33°45' E 129°11'911.9
2018-Mar-31 15:17N 33°40' E 129°03'312.1
2018-Mar-31 15:00N 33°38' E 128°60'712.2
2018-Mar-31 14:28N 33°33' E 128°54'612.0
2018-Mar-31 13:59N 33°30' E 128°48'57311.3
2018-Mar-29 11:09N 25°03' E 123°41'212.4
2018-Mar-29 11:00N 25°02' E 123°40'612.3
2018-Mar-29 10:30N 24°57' E 123°37'612.2
2018-Mar-29 10:00N 24°51' E 123°34'612.2
2018-Mar-29 09:30N 24°46' E 123°30'612.2
2018-Mar-29 09:00N 24°40' E 123°28'612.1
2018-Mar-29 08:30N 24°35' E 123°25'611.6
2018-Mar-29 08:00N 24°30' E 123°23'611.3
2018-Mar-29 07:30N 24°25' E 123°19'611.4
2018-Mar-29 07:00N 24°20' E 123°15'611.9
2018-Mar-29 06:30N 24°16' E 123°11'611.7
2018-Mar-29 06:00N 24°11' E 123°07'612.1
2018-Mar-29 05:30N 24°06' E 123°03'612.6
2018-Mar-29 05:00N 24°01' E 122°59'712.9
2018-Mar-29 04:30N 23°56' E 122°55'612.3
2018-Mar-29 04:00N 23°51' E 122°50'611.5
2018-Mar-29 03:30N 23°47' E 122°47'611.3
2018-Mar-29 03:00N 23°42' E 122°43'611.1
2018-Mar-29 02:30N 23°38' E 122°39'4210.8
2018-Mar-28 22:37N 23°05' E 122°10'411.2
2018-Mar-28 22:18N 23°02' E 122°08'511.5
2018-Mar-28 21:52N 22°59' E 122°05'411.9
2018-Mar-28 21:30N 22°55' E 122°02'611.8
2018-Mar-28 20:59N 22°50' E 121°58'611.9
2018-Mar-28 20:30N 22°46' E 121°54'611.7
2018-Mar-28 19:58N 22°40' E 121°50'511.4
2018-Mar-28 19:30N 22°36' E 121°47'510.6
2018-Mar-28 18:59N 22°32' E 121°43'510.7
2018-Mar-28 18:30N 22°28' E 121°39'511.0
2018-Mar-28 18:00N 22°24' E 121°36'1011.6
2018-Mar-28 17:07N 22°15' E 121°29'112.3
2018-Mar-28 17:01N 22°14' E 121°28'612.3
2018-Mar-28 16:30N 22°10' E 121°24'612.8
2018-Mar-28 16:00N 22°05' E 121°20'612.8
2018-Mar-28 15:30N 21°60' E 121°15'  

Dump ship's entire track history